Latest Weather Observations for Cape Moreton

IDQ60801

Issued at 10:02 pm EST Tuesday 6 December 2016 (issued every 30 minutes, with the page automatically refreshed every 10 minutes)

About weather observations | Map of weather stations | Latest weather observations for QLD | Other Formats
Station Details ID: 040043 Name: CAPE MORETON LIGHTHOUSE Lat: -27.03 Lon: 153.47 Height: 99.9 m
Data from the previous 72 hours. | See also: Recent months at Cape Moreton
Date/Time
EST
Temp
°C
App
Temp
°C
Dew
Point
°C
Rel
Hum
%
Delta-T
°C
Wind Press
QNH
hPa
Press
MSL
hPa
Rain since
9am
mm
Dir  Spd
km/h
Gust
km/h
Spd
kts
Gust
kts
06/10:00pm 23.5 19.8 22.5 94 0.7 N 46 50 25 27 1012.7 1012.3 -
06/09:30pm 23.6 20.8 22.4 93 0.8 N 41 52 22 28 1012.5 1012.1 0.0
06/09:00pm 23.6 20.2 22.4 93 0.8 N 44 57 24 31 1012.3 1011.9 0.0
06/08:39pm 23.6 20.8 22.4 93 0.8 N 41 59 22 32 1012.3 1011.9 0.0
06/08:30pm 23.7 20.8 22.3 92 0.9 N 41 56 22 30 1012.2 1011.8 0.0
06/08:00pm 23.7 20.9 22.5 93 0.8 N 41 56 22 30 1011.8 1011.4 0.0
06/07:30pm 23.7 20.5 22.5 93 0.8 N 43 56 23 30 1011.3 1010.8 0.0
06/07:00pm 23.7 20.5 22.5 93 0.8 N 43 56 23 30 1011.2 1010.7 0.0
06/06:33pm 23.7 21.3 22.5 93 0.8 N 39 57 21 31 1010.9 1010.4 0.0
06/06:30pm 23.7 20.9 22.5 93 0.8 N 41 57 22 31 1011.0 1010.5 0.0
06/06:00pm 23.8 21.4 22.6 93 0.8 N 39 48 21 26 1010.7 1010.2 0.0
06/05:30pm 24.0 22.4 22.6 92 0.9 N 35 48 19 26 1010.5 1010.0 0.0
06/05:00pm 24.3 23.5 22.4 89 1.3 N 30 43 16 23 1010.1 1009.6 0.0
06/04:30pm 24.8 23.9 22.1 85 1.8 N 30 41 16 22 1010.2 1009.7 0.0
06/04:00pm 25.1 23.7 22.0 83 2.1 N 32 41 17 22 1010.2 1009.7 0.0
06/03:30pm 25.1 23.5 21.8 82 2.2 N 33 46 18 25 1010.2 1009.7 0.0
06/03:00pm 25.2 22.2 21.3 79 2.6 N 39 48 21 26 1010.5 1010.0 0.0
06/02:30pm 24.6 21.7 21.5 83 2.1 N 39 50 21 27 1011.1 1010.6 0.0
06/02:00pm 24.5 21.4 21.2 82 2.2 N 39 50 21 27 1011.6 1011.1 0.0
06/01:30pm 25.2 22.9 21.3 79 2.6 NNW 35 46 19 25 1012.1 1011.7 0.0
06/01:00pm 25.3 24.2 21.8 81 2.3 NNW 30 44 16 24 1012.7 1012.2 0.0
06/12:30pm 24.9 23.6 21.4 81 2.3 NNW 30 41 16 22 1013.4 1012.9 0.0
06/12:00pm 25.1 23.7 22.0 83 2.1 NNW 32 43 17 23 1014.2 1013.7 0.0
06/11:30am 25.1 23.7 22.2 84 1.9 NW 33 41 18 22 1015.0 1014.5 0.0
06/11:00am 25.8 25.4 22.3 81 2.4 NNW 28 41 15 22 1015.5 1015.0 0.0
06/10:30am 25.9 26.5 22.8 83 2.1 NNW 24 35 13 19 1016.2 1015.7 0.0
06/10:00am 24.8 23.5 22.5 87 1.5 N 33 43 18 23 1016.6 1016.1 0.0
06/09:30am 25.2 24.7 22.1 83 2.1 N 28 37 15 20 1016.9 1016.4 0.0
06/09:00am 25.2 26.0 22.5 85 1.8 N 22 32 12 17 1017.2 1016.7 0.4
06/08:30am 24.0 23.4 21.3 85 1.8 NNE 26 33 14 18 1017.4 1016.9 0.4
06/08:00am 23.3 21.6 20.6 85 1.8 NE 30 35 16 19 1017.7 1017.2 0.4
06/07:30am 22.2 20.5 21.7 97 0.3 ENE 33 37 18 20 1018.4 1017.9 0.4
06/07:00am 22.3 20.7 21.8 97 0.3 NE 33 39 18 21 1018.5 1018.0 0.4
06/06:30am 22.5 21.8 21.0 91 1.0 NE 26 32 14 17 1018.9 1018.4 0.4
06/06:00am 22.4 22.7 19.6 84 1.8 NNW 17 22 9 12 1018.8 1018.3 0.2
06/05:30am 21.5 21.2 19.6 89 1.2 NNW 20 33 11 18 1018.1 1017.6 0.2
06/05:00am 23.2 26.1 22.5 96 0.5 NNW 11 15 6 8 1017.5 1017.0 0.0
06/04:30am 23.3 24.5 22.5 95 0.5 N 20 24 11 13 1016.4 1015.9 0.0
06/04:00am 23.3 23.5 22.1 93 0.8 N 24 30 13 16 1015.8 1015.3 0.0
06/03:30am 23.2 22.2 22.0 93 0.8 N 30 37 16 20 1014.4 1013.9 0.0
06/03:00am 23.3 22.7 21.9 92 0.9 NNW 28 39 15 21 1014.4 1013.9 0.0
06/02:30am 23.3 20.6 21.9 92 0.9 N 39 50 21 27 1013.7 1013.2 0.0
06/02:00am 23.2 19.8 22.0 93 0.8 NNW 43 57 23 31 1013.2 1012.7 0.0
06/01:30am 23.2 19.7 22.2 94 0.7 NNW 44 54 24 29 1013.1 1012.6 0.0
06/01:00am 23.3 19.0 22.1 93 0.8 N 48 59 26 32 1013.5 1013.0 0.0
06/12:30am 23.3 19.3 22.1 93 0.8 NNW 46 57 25 31 1013.7 1013.2 0.0
06/12:00am 23.4 18.2 22.0 92 0.9 N 52 63 28 34 1013.8 1013.3 0.0
 
Date/Time
EST
Temp
°C
App
Temp
°C
Dew
Point
°C
Rel
Hum
%
Delta-T
°C
Wind Press
QNH
hPa
Press
MSL
hPa
Rain since
9am
mm
Dir  Spd
km/h
Gust
km/h
Spd
kts
Gust
kts
05/11:30pm 23.6 18.4 22.0 91 1.1 N 52 63 28 34 1014.1 1013.6 0.0
05/11:00pm 23.5 18.6 21.8 90 1.1 N 50 63 27 34 1013.6 1013.1 0.0
05/10:30pm 23.6 19.2 21.9 90 1.1 N 48 59 26 32 1013.5 1013.0 0.0
05/10:00pm 23.7 19.7 22.0 90 1.1 N 46 59 25 32 1013.7 1013.2 0.0
05/09:30pm 23.7 19.4 22.1 91 1.1 N 48 59 26 32 1013.5 1013.0 0.0
05/09:00pm 23.7 20.2 22.3 92 0.9 N 44 57 24 31 1013.3 1012.8 0.0
05/08:30pm 23.7 20.2 22.3 92 0.9 N 44 57 24 31 1013.0 1012.5 0.0
05/08:00pm 23.7 20.3 22.5 93 0.8 N 44 56 24 30 1012.5 1012.1 0.0
05/07:30pm 23.8 20.6 22.4 92 0.9 N 43 56 23 30 1012.2 1011.8 0.0
05/07:00pm 23.7 21.5 22.1 91 1.1 N 37 54 20 29 1012.0 1011.6 0.0
05/06:30pm 23.8 21.3 22.4 92 0.9 N 39 54 21 29 1012.0 1011.6 0.0
05/06:00pm 23.9 21.3 22.2 90 1.1 N 39 52 21 28 1011.8 1011.4 0.0
05/05:47pm 24.1 21.6 22.4 90 1.1 N 39 57 21 31 1011.7 1011.3 0.0
05/05:30pm 24.0 21.1 22.3 90 1.1 N 41 54 22 29 1011.7 1011.3 0.0
05/05:00pm 24.0 21.4 22.1 89 1.3 N 39 52 21 28 1011.9 1011.5 0.0
05/04:30pm 24.3 21.6 22.0 87 1.5 NNE 39 54 21 29 1011.9 1011.5 0.0
05/04:00pm 24.6 21.5 21.9 85 1.8 NNE 41 54 22 29 1011.9 1011.5 0.0
05/03:30pm 24.9 22.2 22.0 84 1.9 NNE 39 52 21 28 1012.1 1011.7 0.0
05/03:00pm 25.4 23.4 21.9 81 2.3 N 35 50 19 27 1012.3 1011.9 0.0
05/02:31pm 25.4 23.7 21.7 80 2.5 NNE 33 54 18 29 1012.4 1012.0 0.0
05/02:30pm 25.8 24.4 22.3 81 2.4 NNE 33 44 18 24 1012.4 1012.0 0.0
05/02:00pm 26.0 24.1 22.1 79 2.6 N 35 48 19 26 1012.9 1012.4 0.0
05/01:30pm 25.8 22.9 21.5 77 2.9 NNE 39 52 21 28 1013.1 1012.6 0.0
05/01:00pm 26.1 23.9 22.2 79 2.6 NNE 37 48 20 26 1013.5 1013.0 0.0
05/12:30pm 26.2 25.1 21.8 77 2.9 NNE 30 43 16 23 1013.9 1013.4 0.0
05/12:00pm 26.3 24.9 21.9 77 3.0 N 32 43 17 23 1014.5 1014.0 0.0
05/11:30am 26.1 24.7 22.0 78 2.8 N 32 41 17 22 1015.0 1014.5 0.0
05/11:00am 26.2 25.0 22.3 79 2.6 N 32 43 17 23 1015.2 1014.7 0.0
05/10:30am 25.6 24.3 22.1 81 2.4 N 32 41 17 22 1015.6 1015.1 0.0
05/10:00am 25.2 23.4 22.3 84 1.9 N 35 41 19 22 1015.8 1015.3 0.0
05/09:30am 24.8 22.8 21.9 84 1.9 N 35 43 19 23 1015.9 1015.4 0.0
05/09:00am 24.7 23.4 22.4 87 1.5 N 33 41 18 22 1016.1 1015.6 0.0
05/08:30am 24.6 23.3 22.1 86 1.7 N 32 39 17 21 1016.4 1015.9 0.0
05/08:00am 24.3 23.2 22.4 89 1.3 N 32 39 17 21 1016.4 1015.9 0.0
05/07:30am 24.2 23.2 22.6 91 1.1 N 32 39 17 21 1016.6 1016.1 0.0
05/07:00am 23.9 23.3 22.7 93 0.8 N 30 37 16 20 1016.6 1016.1 0.0
05/06:30am 23.7 23.0 22.5 93 0.8 N 30 35 16 19 1016.5 1016.0 0.0
05/06:00am 23.5 22.9 22.7 95 0.5 N 30 35 16 19 1016.4 1015.9 0.0
05/05:30am 23.3 21.7 22.6 96 0.5 N 35 44 19 24 1015.9 1015.4 0.0
05/05:00am 23.1 22.1 22.6 97 0.3 N 32 39 17 21 1015.6 1015.1 0.0
05/04:30am 23.1 22.1 22.6 97 0.3 NNW 32 39 17 21 1015.4 1014.9 0.0
05/04:00am 23.0 22.0 22.7 98 0.2 NNW 32 39 17 21 1015.0 1014.5 0.0
05/03:30am 23.0 22.1 22.8 99 0.1 NNW 32 39 17 21 1014.9 1014.4 0.0
05/03:00am 23.0 22.8 22.8 99 0.1 NNW 28 41 15 22 1015.0 1014.5 0.0
05/02:30am 22.9 22.3 22.7 99 0.1 NNW 30 39 16 21 1015.0 1014.5 0.0
05/02:00am 23.0 23.2 22.8 99 0.1 NNW 26 35 14 19 1014.9 1014.4 0.0
05/01:30am 23.1 23.0 22.9 99 0.1 NNW 28 37 15 20 1015.0 1014.5 0.0
05/01:00am 23.3 22.9 23.0 98 0.2 NNW 30 37 16 20 1015.2 1014.7 0.0
05/12:30am 23.4 23.0 23.1 98 0.2 N 30 39 16 21 1015.5 1015.0 0.0
05/12:00am 23.5 22.5 23.0 97 0.3 N 33 41 18 22 1015.6 1015.1 0.0
 
Date/Time
EST
Temp
°C
App
Temp
°C
Dew
Point
°C
Rel
Hum
%
Delta-T
°C
Wind Press
QNH
hPa
Press
MSL
hPa
Rain since
9am
mm
Dir  Spd
km/h
Gust
km/h
Spd
kts
Gust
kts
04/11:30pm 23.5 22.5 23.0 97 0.3 N 33 41 18 22 1015.6 1015.1 0.0
04/11:00pm 23.5 22.5 23.0 97 0.3 N 33 39 18 21 1015.6 1015.1 0.0
04/10:30pm 23.6 23.5 22.9 96 0.5 N 28 37 15 20 1015.5 1015.0 0.0
04/10:00pm 23.6 23.5 22.9 96 0.5 N 28 37 15 20 1015.6 1015.1 0.0
04/09:30pm 23.6 23.6 23.1 97 0.3 N 28 37 15 20 1015.4 1014.9 0.0
04/09:00pm 23.6 22.7 22.9 96 0.5 N 32 39 17 21 1015.2 1014.7 0.0
04/08:30pm 23.6 24.0 23.1 97 0.3 N 26 35 14 19 1015.0 1014.5 0.0
04/08:00pm 23.6 23.9 22.9 96 0.5 N 26 35 14 19 1014.8 1014.3 0.0
04/07:30pm 23.6 23.1 22.8 95 0.5 N 30 37 16 20 1014.4 1013.9 0.0
04/07:00pm 23.6 23.3 22.6 94 0.7 N 28 37 15 20 1014.3 1013.8 0.0
04/06:30pm 23.7 22.5 22.3 92 0.9 N 32 43 17 23 1014.0 1013.5 0.0
04/06:00pm 23.9 22.7 22.3 91 1.1 N 32 41 17 22 1014.0 1013.5 0.0
04/05:30pm 24.1 22.9 22.2 89 1.3 N 32 41 17 22 1013.8 1013.3 0.0
04/05:00pm 24.4 23.0 22.3 88 1.4 NNE 33 41 18 22 1013.6 1013.1 0.0
04/04:30pm 24.8 23.0 22.3 86 1.7 NNE 35 46 19 25 1013.6 1013.1 0.0
04/04:00pm 25.1 23.8 22.4 85 1.8 NNE 33 43 18 23 1013.6 1013.1 0.0
04/03:30pm 25.5 24.7 22.4 83 2.1 NNE 30 39 16 21 1013.9 1013.4 0.0
04/03:00pm 25.6 24.2 21.9 80 2.5 NNE 32 41 17 22 1013.8 1013.3 0.0
04/02:30pm 25.7 24.3 22.2 81 2.4 NNE 33 43 18 23 1014.0 1013.5 0.0
04/02:00pm 26.1 24.8 22.4 80 2.5 NNE 33 43 18 23 1014.2 1013.7 0.0
04/01:30pm 26.2 24.9 22.5 80 2.5 NNE 33 41 18 22 1014.3 1013.8 0.0
04/01:00pm 26.3 26.4 22.6 80 2.5 NNE 26 37 14 20 1014.7 1014.2 0.0
04/12:30pm 26.7 26.8 23.2 81 2.4 NNE 28 39 15 21 1014.9 1014.4 0.0
04/12:00pm 26.6 27.3 22.9 80 2.5 N 24 35 13 19 1015.5 1015.0 0.0
04/11:30am 26.7 28.9 24.2 86 1.7 N 20 28 11 15 1016.0 1015.5 0.0
04/11:00am 25.7 27.3 23.9 90 1.2 N 22 28 12 15 1016.3 1015.8 0.0
04/10:30am 25.3 25.2 23.5 90 1.2 N 30 35 16 19 1016.4 1015.9 0.0
04/10:00am 25.3 26.0 23.7 91 1.1 N 26 32 14 17 1016.5 1016.0 0.0
04/09:30am 25.1 25.6 23.3 90 1.2 N 26 32 14 17 1016.5 1016.0 0.0
04/09:00am 24.9 25.1 23.5 92 1.0 N 28 35 15 19 1016.5 1016.0 6.0
04/08:30am 25.0 25.9 24.0 94 0.7 N 26 33 14 18 1016.5 1016.0 6.0
04/08:00am 24.7 25.4 23.7 94 0.7 N 26 33 14 18 1016.4 1015.9 6.0
04/07:30am 24.9 25.8 23.3 91 1.1 NNE 24 33 13 18 1016.2 1015.7 6.0
04/07:00am 24.7 26.3 23.3 92 1.0 NNE 20 28 11 15 1016.3 1015.8 6.0
04/06:30am 24.7 25.5 23.1 91 1.1 NNE 24 28 13 15 1015.9 1015.4 6.0
04/06:00am 24.6 26.2 22.8 90 1.2 NE 19 24 10 13 1015.8 1015.3 6.0
04/05:30am 23.6 24.9 22.6 94 0.7 NE 20 26 11 14 1015.6 1015.1 6.0
04/05:00am 22.8 24.2 22.6 99 0.1 ENE 19 24 10 13 1015.2 1014.7 6.0
04/04:30am 22.5 24.2 22.3 99 0.1 ENE 17 20 9 11 1015.2 1014.7 6.0
04/04:00am 22.3 23.3 22.1 99 0.1 ESE 20 24 11 13 1015.3 1014.8 6.0
04/03:43am 22.2 23.7 22.0 99 0.1 ESE 17 35 9 19 1015.3 1014.8 6.0
04/03:30am 22.1 24.6 21.8 98 0.2 W 11 15 6 8 1014.4 1013.9 6.0
04/03:00am 22.3 24.0 21.6 96 0.5 WNW 15 19 8 10 1013.8 1013.3 6.0
04/02:30am 22.5 22.6 21.1 92 0.9 WNW 22 28 12 15 1013.6 1013.1 6.0
04/02:00am 22.7 21.1 20.8 89 1.2 WNW 30 41 16 22 1013.0 1012.5 6.0
04/01:30am 22.8 21.3 21.8 94 0.7 WNW 32 43 17 23 1013.2 1012.7 6.0
04/01:00am 22.7 21.4 22.5 99 0.1 WNW 33 41 18 22 1013.9 1013.4 6.0
04/12:30am 23.0 23.7 23.0 100 0.0 NW 24 33 13 18 1014.7 1014.2 6.0
04/12:00am 23.2 23.6 23.2 100 0.0 NNW 26 35 14 19 1014.9 1014.4 6.0
 
Date/Time
EST
Temp
°C
App
Temp
°C
Dew
Point
°C
Rel
Hum
%
Delta-T
°C
Wind Press
QNH
hPa
Press
MSL
hPa
Rain since
9am
mm
Dir  Spd
km/h
Gust
km/h
Spd
kts
Gust
kts
03/11:30pm 23.4 23.6 23.4 100 0.0 N 28 35 15 19 1015.7 1015.2 6.0
03/11:00pm 23.4 23.2 23.4 100 0.0 N 30 41 16 22 1016.1 1015.6 6.0
03/10:30pm 23.4 21.5 23.4 100 0.0 NNE 39 46 21 25 1016.4 1015.9 6.0

Other Formats:

Comma delimited format used in spreadsheet applications
http://www.bom.gov.au/fwo/IDQ60801/IDQ60801.94594.axf

JavaScript Object Notation format (JSON) in row-major order
http://www.bom.gov.au/fwo/IDQ60801/IDQ60801.94594.json